METAR Data
IDs: Format: Raw Decoded Include TAF

Data at: 1716 UTC 21 Sep 2018

KVCT 211651Z 18010KT 10SM FEW027 32/24 A2995 RMK AO2 SLP139 T03170244
KVCT 211551Z 16010KT 10SM FEW020 FEW110 31/25 A2995 RMK AO2 SLP140 T03060250
KVCT 211451Z 16011KT 10SM FEW015 30/26 A2994 RMK AO2 SLP138 T03000256 50008
KVCT 211351Z 16009KT 10SM SCT100 28/25 A2995 RMK AO2 SLP138 T02830250
KVCT 211251Z 13005KT 9SM SCT095 26/24 A2993 RMK AO2 SLP133 T02610244
KVCT 211151Z 12004KT 8SM BKN090 26/25 A2992 RMK AO2 SLP130 T02610250 10267 20261 53004
KVCT 211051Z AUTO 13004KT 8SM CLR 26/25 A2991 RMK AO2 SLP126 T02610250
KVCT 210951Z AUTO 11005KT 9SM CLR 26/25 A2991 RMK AO2 SLP125 T02610250
KVCT 210851Z AUTO 14005KT 10SM FEW023 26/25 A2991 RMK AO2 SLP126 T02610250 56007
KVCT 210751Z AUTO 15006KT 10SM CLR 27/25 A2991 RMK AO2 SLP128 T02670250
KVCT 210651Z AUTO 14008KT 10SM CLR 27/25 A2992 RMK AO2 SLP128 T02670250
KVCT 210551Z AUTO 14008KT 10SM CLR 27/25 A2993 RMK AO2 SLP133 60000 T02670250 10278 20256 403280250 58002
KVCT 210451Z AUTO 14007KT 10SM CLR 27/25 A2995 RMK AO2 SLP139 T02670250
KVCT 210351Z AUTO 14006KT 10SM CLR 27/25 A2995 RMK AO2 SLP140 T02670250
KVCT 210251Z AUTO 13006KT 10SM FEW025 FEW070 SCT090 27/25 A2993 RMK AO2 SLP135 60000 T02670250 53009
KVCT 210151Z 13007KT 10SM BKN100 26/24 A2991 RMK AO2 SLP128 T02610239
KVCT 210051Z 12007KT 10SM BKN090 26/22 A2990 RMK AO2 RAE09 SLP124 P0000 T02610222
KVCT 202351Z 14017G20KT 10SM -RA FEW020 28/24 A2991 RMK AO2 RAB2253E11B39 SLP126 P0000 60000 T02780244 10328 20267 53006
KVCT 202251Z 15010KT 10SM FEW110 27/22 A2990 RMK AO2 LTG DSNT SE SLP122 T02720217
KVCT 202151Z 16010KT 10SM SCT030 OVC100 29/24 A2989 RMK AO2 SLP120 T02940239
KVCT 202051Z 14011KT 10SM BKN100 29/24 A2989 RMK AO2 SLP120 60000 T02940239 56019
KVCT 201951Z 16014G21KT 10SM BKN100 30/24 A2990 RMK AO2 LTG DSNT W-NE RAB1858E09 SLP124 P0000 T03000239
KVCT 201942Z 15016KT 10SM BKN100 31/23 A2991 RMK AO2 LTG DSNT NE AND W RAB1858E09 P0000 T03060233
KVCT 201905Z 19012KT 9SM VCTS -RA FEW035 SCT055 BKN120 30/25 A2992 RMK AO2 RAB1858 P0000 T03000250
KVCT 201851Z 17016KT 10SM SCT033 SCT043 BKN050 31/23 A2993 RMK AO2 SLP132 T03110233
KVCT 201751Z 17010KT 10SM FEW027 SCT050 BKN120 31/24 A2995 RMK AO2 SLP139 60000 T03060239 10317 20256 58004
KVCT 201651Z 16013KT 10SM SCT019 OVC100 30/24 A2997 RMK AO2 SLP147 T03000244
KVCT 201551Z 15009KT 10SM SCT040 OVC100 29/25 A2997 RMK AO2 SLP146 T02890250
KVCT 201451Z 13006KT 10SM FEW050 OVC090 27/26 A2996 RMK AO2 SLP144 60000 T02720256 51013
KVCT 201351Z 10004KT 6SM BR FEW020 26/25 A2995 RMK AO2 RAB1255E06 SLP139 P0000 T02610250
KVCT 201251Z 12004KT 9SM FEW022 FEW038 SCT060 26/24 A2994 RMK AO2 LTG DSNT E SLP136 T02610244
KVCT 201151Z 09003KT 6SM BR FEW016 FEW030 26/24 A2992 RMK AO2 SLP131 T02560239 10261 20250 53003
KVCT 201051Z AUTO 09004KT 7SM CLR 25/24 A2991 RMK AO2 SLP128 T02500239
KVCT 200951Z AUTO 00000KT 8SM SCT017 25/24 A2991 RMK AO2 SLP127 T02500239
KVCT 200936Z AUTO 00000KT 7SM BKN017 BKN023 26/24 A2992 RMK AO2 T02560239
KVCT 200851Z AUTO 15004KT 10SM CLR 26/24 A2992 RMK AO2 SLP130 T02560244 58008
KVCT 200751Z AUTO 11003KT 10SM CLR 26/24 A2993 RMK AO2 SLP135 T02560244
KVCT 200651Z AUTO 15005KT 10SM CLR 26/24 A2994 RMK AO2 SLP137 T02610244
KVCT 200551Z AUTO 15005KT 10SM CLR 26/24 A2994 RMK AO2 SLP137 T02610239 10294 20256 403330228 50005